createdAt,value
2019-04-28T00:01:26.304Z,2.37
2019-04-28T00:03:57.037Z,1.60
2019-04-28T00:06:28.055Z,2.72
2019-04-28T00:08:59.154Z,2.20
2019-04-28T00:11:31.699Z,2.95
2019-04-28T00:14:02.787Z,1.50
2019-04-28T00:16:33.531Z,2.20
2019-04-28T00:19:04.396Z,2.12
2019-04-28T00:21:53.979Z,2.65
2019-04-28T00:24:51.422Z,2.72
2019-04-28T00:27:22.416Z,1.62
2019-04-28T00:29:53.126Z,1.82
2019-04-28T00:32:24.105Z,2.00
2019-04-28T00:34:54.892Z,2.45
2019-04-28T00:37:31.768Z,1.67
2019-04-28T00:40:02.399Z,2.37
2019-04-28T00:42:33.378Z,1.70
2019-04-28T00:45:04.311Z,1.57
2019-04-28T00:47:35.297Z,1.70
2019-04-28T00:50:07.132Z,1.50
2019-04-28T00:52:37.704Z,1.60
2019-04-28T00:55:08.597Z,2.15
2019-04-28T00:57:40.957Z,1.70
2019-04-28T01:00:12.980Z,1.75
2019-04-28T01:02:44.211Z,1.80
2019-04-28T01:05:15.307Z,2.27
2019-04-28T01:07:46.163Z,1.90
2019-04-28T01:10:17.149Z,2.72
2019-04-28T01:12:48.135Z,1.90
2019-04-28T01:15:33.362Z,1.92
2019-04-28T01:18:23.737Z,3.40
2019-04-28T01:20:55.253Z,3.27
2019-04-28T01:23:26.524Z,1.80
2019-04-28T01:25:57.389Z,1.60
2019-04-28T01:28:29.730Z,1.70
2019-04-28T01:31:10.860Z,2.05
2019-04-28T01:34:03.906Z,1.72
2019-04-28T01:36:36.456Z,1.62
2019-04-28T01:39:09.940Z,1.92
2019-04-28T01:41:40.437Z,2.27
2019-04-28T01:44:12.190Z,2.17
2019-04-28T01:46:43.203Z,2.33
2019-04-28T01:49:14.096Z,2.00
2019-04-28T01:51:45.038Z,2.35
2019-04-28T01:54:15.757Z,2.08
2019-04-28T01:56:46.649Z,3.45
2019-04-28T01:59:18.063Z,3.15
2019-04-28T02:01:49.910Z,4.92
2019-04-28T02:04:20.743Z,2.40
2019-04-28T02:06:51.661Z,2.40
2019-04-28T02:09:22.312Z,3.42
2019-04-28T02:11:53.058Z,2.75
2019-04-28T02:14:23.949Z,2.95
2019-04-28T02:16:54.646Z,2.05
2019-04-28T02:19:25.518Z,2.60
2019-04-28T02:22:12.704Z,3.12
2019-04-28T02:24:43.297Z,4.97
2019-04-28T02:27:14.304Z,3.02
2019-04-28T02:29:44.964Z,3.67
2019-04-28T02:32:15.933Z,2.67
2019-04-28T02:34:46.658Z,3.47
2019-04-28T02:37:17.385Z,2.98
2019-04-28T02:39:50.232Z,3.42
2019-04-28T02:42:21.034Z,3.02
2019-04-28T02:44:52.130Z,3.60
2019-04-28T02:47:23.082Z,3.95
2019-04-28T02:50:11.568Z,4.22
2019-04-28T02:53:06.352Z,3.60
2019-04-28T02:55:37.186Z,3.80
2019-04-28T02:58:07.848Z,3.67
2019-04-28T03:00:41.009Z,3.22
2019-04-28T03:03:11.197Z,2.62
2019-04-28T03:05:41.961Z,2.83
2019-04-28T03:08:12.716Z,2.90
2019-04-28T03:10:43.668Z,3.08
2019-04-28T03:13:14.297Z,3.72
2019-04-28T03:15:45.529Z,3.60
2019-04-28T03:18:16.466Z,2.87
2019-04-28T03:20:47.221Z,3.83
2019-04-28T03:23:20.489Z,2.87
2019-04-28T03:26:12.902Z,4.67
2019-04-28T03:28:48.081Z,3.40
2019-04-28T03:32:07.855Z,2.72
2019-04-28T03:34:13.395Z,2.90
2019-04-28T03:36:44.254Z,4.00
2019-04-28T03:39:14.960Z,3.58
2019-04-28T03:41:45.752Z,2.70
2019-04-28T03:44:16.644Z,3.60
2019-04-28T03:46:52.214Z,2.90
2019-04-28T03:49:33.461Z,3.00
2019-04-28T03:52:04.758Z,3.72
2019-04-28T03:54:35.733Z,3.00
2019-04-28T03:57:06.683Z,3.33
2019-04-28T03:59:37.748Z,3.75
2019-04-28T04:02:11.302Z,3.20
2019-04-28T04:04:41.660Z,3.00
2019-04-28T04:07:12.674Z,3.05
2019-04-28T04:10:05.429Z,4.72
2019-04-28T04:12:54.089Z,3.30
2019-04-28T04:15:54.064Z,3.20
2019-04-28T04:18:30.930Z,3.50
2019-04-28T04:21:02.195Z,3.42
2019-04-28T04:23:33.078Z,3.40
2019-04-28T04:26:03.882Z,3.33
2019-04-28T04:28:34.786Z,4.00
2019-04-28T04:31:05.703Z,4.65
2019-04-28T04:33:36.522Z,4.60
2019-04-28T04:36:07.292Z,4.12
2019-04-28T04:38:40.154Z,3.87
2019-04-28T04:41:11.369Z,3.30
2019-04-28T04:43:42.345Z,4.08
2019-04-28T04:46:16.333Z,4.00
2019-04-28T04:48:47.173Z,4.45
2019-04-28T04:51:17.723Z,4.00
2019-04-28T04:53:51.116Z,4.10
2019-04-28T04:56:21.643Z,4.58
2019-04-28T04:58:52.674Z,4.95
2019-04-28T05:01:40.451Z,4.92
2019-04-28T05:04:26.371Z,4.00
2019-04-28T05:06:57.183Z,3.60
2019-04-28T05:09:29.342Z,3.25
2019-04-28T05:12:00.486Z,3.90
2019-04-28T05:14:31.321Z,3.62
2019-04-28T05:17:02.627Z,3.40
2019-04-28T05:19:33.392Z,4.37
2019-04-28T05:22:04.813Z,3.17
2019-04-28T05:24:54.622Z,3.92
2019-04-28T05:27:25.901Z,3.55
2019-04-28T05:30:00.999Z,4.15
2019-04-28T05:32:41.660Z,3.77
2019-04-28T05:35:01.684Z,5.83
2019-04-28T05:37:32.725Z,4.30
2019-04-28T05:40:03.506Z,3.87
2019-04-28T05:42:34.403Z,3.58
2019-04-28T05:45:05.498Z,4.37
2019-04-28T05:47:36.252Z,4.90
2019-04-28T05:50:19.704Z,4.00
2019-04-28T05:53:10.764Z,4.10
2019-04-28T05:56:06.515Z,4.15
2019-04-28T05:58:45.631Z,3.52
2019-04-28T06:01:32.411Z,3.75
2019-04-28T06:04:03.417Z,4.67
2019-04-28T06:06:38.004Z,3.35
2019-04-28T06:09:29.480Z,3.47
2019-04-28T06:12:00.510Z,4.87
2019-04-28T06:14:31.341Z,3.72
2019-04-28T06:17:04.075Z,4.92
2019-04-28T06:19:34.839Z,3.75
2019-04-28T06:22:05.704Z,3.77
2019-04-28T06:24:36.448Z,4.25
2019-04-28T06:27:07.282Z,4.42
2019-04-28T06:29:38.078Z,4.05
2019-04-28T06:32:09.076Z,3.90
2019-04-28T06:34:39.833Z,4.87
2019-04-28T06:37:10.500Z,4.47
2019-04-28T06:39:41.332Z,5.05
2019-04-28T06:42:12.150Z,4.28
2019-04-28T06:44:43.226Z,4.33
2019-04-28T06:47:16.672Z,4.33
2019-04-28T06:49:46.536Z,4.00
2019-04-28T06:52:17.147Z,4.55
2019-04-28T06:54:48.044Z,4.97
2019-04-28T06:57:18.902Z,3.87
2019-04-28T06:59:49.805Z,5.60
2019-04-28T07:02:20.296Z,4.55
2019-04-28T07:05:01.314Z,3.90
2019-04-28T07:07:24.105Z,4.28
2019-04-28T07:09:55.000Z,4.70
2019-04-28T07:12:25.895Z,3.87
2019-04-28T07:14:56.864Z,4.20
2019-04-28T07:17:27.712Z,4.97
2019-04-28T07:20:10.289Z,3.90
2019-04-28T07:22:41.452Z,3.75
2019-04-28T07:25:12.189Z,4.25
2019-04-28T07:27:43.032Z,3.70
2019-04-28T07:30:13.823Z,3.92
2019-04-28T07:32:44.557Z,4.97
2019-04-28T07:35:15.749Z,5.60
2019-04-28T07:37:46.553Z,5.03
2019-04-28T07:40:17.313Z,3.98
2019-04-28T07:42:48.335Z,4.25
2019-04-28T07:45:19.196Z,4.20
2019-04-28T07:47:49.916Z,4.12
2019-04-28T07:50:20.961Z,3.12
2019-04-28T07:52:56.846Z,7.80
2019-04-28T07:55:27.516Z,4.65
2019-04-28T07:57:58.506Z,5.70
2019-04-28T08:00:31.039Z,6.00
2019-04-28T08:03:01.936Z,5.03
2019-04-28T08:05:32.691Z,4.53
2019-04-28T08:08:03.581Z,3.92
2019-04-28T08:10:34.345Z,4.72
2019-04-28T08:13:05.390Z,4.83
2019-04-28T08:15:36.307Z,4.22
2019-04-28T08:18:07.195Z,5.33
2019-04-28T08:20:38.165Z,5.37
2019-04-28T08:23:09.140Z,3.00
2019-04-28T08:25:40.128Z,3.33
2019-04-28T08:28:11.853Z,3.55
2019-04-28T08:30:42.840Z,3.33
2019-04-28T08:33:24.139Z,4.45
2019-04-28T08:35:54.973Z,4.05
2019-04-28T08:38:25.906Z,2.70
2019-04-28T08:40:56.522Z,2.90
2019-04-28T08:43:27.597Z,3.72
2019-04-28T08:45:58.531Z,3.90
2019-04-28T08:48:29.264Z,5.20
2019-04-28T08:51:00.229Z,4.75
2019-04-28T08:53:30.942Z,3.33
2019-04-28T08:56:01.641Z,2.25
2019-04-28T08:58:32.509Z,3.27
2019-04-28T09:01:05.831Z,4.00
2019-04-28T09:03:36.779Z,4.22
2019-04-28T09:06:07.674Z,2.35
2019-04-28T09:08:38.739Z,1.85
2019-04-28T09:11:09.779Z,3.33
2019-04-28T09:13:43.537Z,3.00
2019-04-28T09:16:14.167Z,2.45
2019-04-28T09:18:44.939Z,2.95
2019-04-28T09:21:16.186Z,2.87
2019-04-28T09:23:47.169Z,2.33
2019-04-28T09:26:18.130Z,1.77
2019-04-28T09:28:49.299Z,2.12
2019-04-28T09:31:20.337Z,3.95
2019-04-28T09:33:51.452Z,3.25
2019-04-28T09:36:22.278Z,2.40
2019-04-28T09:38:53.350Z,2.35
2019-04-28T09:41:24.344Z,2.83
2019-04-28T09:44:02.966Z,2.65
2019-04-28T09:46:37.072Z,2.33
2019-04-28T09:49:08.551Z,2.27
2019-04-28T09:51:39.219Z,1.60
2019-04-28T09:54:10.284Z,2.00
2019-04-28T09:56:41.865Z,1.72
2019-04-28T09:59:13.101Z,2.22
2019-04-28T10:01:44.888Z,4.33
2019-04-28T10:04:18.291Z,3.50
2019-04-28T10:06:51.226Z,2.95
2019-04-28T10:09:25.912Z,3.08
2019-04-28T10:12:00.871Z,5.90
2019-04-28T10:14:33.781Z,7.00
2019-04-28T10:17:07.644Z,6.58
2019-04-28T10:19:40.738Z,9.00
2019-04-28T10:22:15.586Z,14.98
2019-04-28T10:24:48.153Z,7.85
2019-04-28T10:27:21.525Z,7.85
2019-04-28T10:29:54.280Z,5.97
2019-04-28T10:32:25.697Z,6.30
2019-04-28T10:34:56.883Z,9.38
2019-04-28T10:37:28.959Z,7.72
2019-04-28T10:40:07.918Z,3.40
2019-04-28T10:42:41.321Z,6.90
2019-04-28T10:45:16.163Z,4.67
2019-04-28T10:47:48.095Z,9.40
2019-04-28T10:50:21.508Z,7.97
2019-04-28T10:52:53.381Z,6.40
2019-04-28T10:55:24.728Z,7.15
2019-04-28T10:57:56.081Z,7.12
2019-04-28T11:00:29.364Z,7.17
2019-04-28T11:03:01.694Z,5.37
2019-04-28T11:05:45.793Z,5.55
2019-04-28T11:08:39.457Z,8.83
2019-04-28T11:11:22.059Z,5.60
2019-04-28T11:13:52.498Z,4.35
2019-04-28T11:16:26.136Z,4.05
2019-04-28T11:18:57.046Z,3.67
2019-04-28T11:21:27.770Z,5.30
2019-04-28T11:23:58.795Z,3.60
2019-04-28T11:26:29.714Z,5.53
2019-04-28T11:29:01.284Z,4.20
2019-04-28T11:31:32.195Z,3.02
2019-04-28T11:34:23.875Z,3.80
2019-04-28T11:36:54.670Z,4.90
2019-04-28T11:39:31.484Z,3.77
2019-04-28T11:42:02.334Z,3.45
2019-04-28T11:44:33.073Z,3.42
2019-04-28T11:47:05.910Z,4.95
2019-04-28T11:49:36.620Z,2.25
2019-04-28T11:52:07.653Z,4.28
2019-04-28T11:54:38.488Z,2.92
2019-04-28T11:57:09.331Z,3.85
2019-04-28T11:59:40.250Z,3.35
2019-04-28T12:02:11.403Z,3.20
2019-04-28T12:04:42.396Z,4.85
2019-04-28T12:07:13.191Z,4.17
2019-04-28T12:09:49.655Z,2.30
2019-04-28T12:12:39.199Z,2.77
2019-04-28T12:15:23.359Z,4.17
2019-04-28T12:18:13.130Z,5.25
2019-04-28T12:20:44.343Z,5.30
2019-04-28T12:23:15.775Z,2.45
2019-04-28T12:25:46.707Z,4.37
2019-04-28T12:28:17.680Z,3.70
2019-04-28T12:30:48.768Z,3.80
2019-04-28T12:33:19.908Z,4.80
2019-04-28T12:35:51.414Z,3.40
2019-04-28T12:38:22.204Z,3.00
2019-04-28T12:40:53.366Z,2.98
2019-04-28T12:43:24.461Z,1.70
2019-04-28T12:45:55.463Z,5.25
2019-04-28T12:48:26.122Z,2.80
2019-04-28T12:50:57.137Z,2.58
2019-04-28T12:53:28.111Z,3.60
2019-04-28T12:55:59.281Z,2.67
2019-04-28T12:58:29.929Z,2.10
2019-04-28T13:01:31.149Z,7.10
2019-04-28T13:04:21.054Z,6.37
2019-04-28T13:07:19.934Z,19.35
2019-04-28T13:09:51.271Z,8.20
2019-04-28T13:12:22.420Z,5.47
2019-04-28T13:14:53.248Z,3.45
2019-04-28T13:17:24.158Z,2.75
2019-04-28T13:19:56.227Z,3.17
2019-04-28T13:22:26.835Z,8.10
2019-04-28T13:24:58.012Z,3.30
2019-04-28T13:27:28.890Z,3.65
2019-04-28T13:29:59.983Z,2.75
2019-04-28T13:32:30.496Z,2.50
2019-04-28T13:35:01.783Z,2.30
2019-04-28T13:37:37.893Z,3.58
2019-04-28T13:40:15.164Z,4.37
2019-04-28T13:43:04.081Z,4.17
2019-04-28T13:45:44.276Z,2.70
2019-04-28T13:48:15.388Z,2.22
2019-04-28T13:50:48.913Z,2.60
2019-04-28T13:53:19.031Z,2.42
2019-04-28T13:55:57.035Z,2.30
2019-04-28T13:58:31.142Z,1.98
2019-04-28T14:01:24.838Z,2.37
2019-04-28T14:04:23.208Z,2.20
2019-04-28T14:07:19.152Z,2.10
2019-04-28T14:09:50.212Z,3.62
2019-04-28T14:12:21.658Z,4.35
2019-04-28T14:14:52.605Z,6.15
2019-04-28T14:17:23.722Z,5.62
2019-04-28T14:19:54.614Z,3.87
2019-04-28T14:22:25.822Z,4.70
2019-04-28T14:24:56.778Z,2.42
2019-04-28T14:27:27.692Z,4.72
2019-04-28T14:29:58.527Z,3.62
2019-04-28T14:32:29.385Z,3.45
2019-04-28T14:35:02.954Z,2.60
2019-04-28T14:37:36.158Z,3.22
2019-04-28T14:40:09.093Z,4.47
2019-04-28T14:42:44.792Z,4.45
2019-04-28T14:45:17.972Z,3.77
2019-04-28T14:47:51.920Z,4.37
2019-04-28T14:50:25.923Z,4.58
2019-04-28T14:52:57.746Z,5.25
2019-04-28T14:55:32.916Z,5.17
2019-04-28T14:58:04.388Z,5.25
2019-04-28T15:00:40.360Z,5.28
2019-04-28T15:03:13.749Z,5.00
2019-04-28T15:05:55.143Z,2.90
2019-04-28T15:08:41.530Z,4.50
2019-04-28T15:11:23.989Z,5.15
2019-04-28T15:13:55.645Z,3.42
2019-04-28T15:16:31.117Z,4.10
2019-04-28T15:19:04.297Z,3.75
2019-04-28T15:21:36.294Z,4.12
2019-04-28T15:24:07.935Z,3.77
2019-04-28T15:26:39.348Z,3.70
2019-04-28T15:29:10.958Z,4.75
2019-04-28T15:31:42.827Z,2.72
2019-04-28T15:34:14.718Z,2.85
2019-04-28T15:36:46.763Z,3.27
2019-04-28T15:39:18.235Z,3.37
2019-04-28T15:41:49.856Z,3.25
2019-04-28T15:44:21.605Z,3.37
2019-04-28T15:46:53.444Z,4.08
2019-04-28T15:49:24.970Z,2.60
2019-04-28T15:51:56.867Z,3.25
2019-04-28T15:54:29.249Z,3.25
2019-04-28T15:57:00.827Z,2.95
2019-04-28T15:59:32.323Z,2.37
2019-04-28T16:02:03.938Z,2.98
2019-04-28T16:04:35.743Z,3.50
2019-04-28T16:07:07.318Z,3.08
2019-04-28T16:09:41.085Z,2.22
2019-04-28T16:12:11.962Z,2.52
2019-04-28T16:14:43.440Z,2.00
2019-04-28T16:17:14.886Z,3.05
2019-04-28T16:19:46.299Z,3.20
2019-04-28T16:22:18.100Z,2.35
2019-04-28T16:24:49.589Z,3.35
2019-04-28T16:27:21.332Z,2.67
2019-04-28T16:29:52.839Z,2.17
2019-04-28T16:32:26.164Z,3.08
2019-04-28T16:34:57.168Z,2.62
2019-04-28T16:37:38.749Z,2.42
2019-04-28T16:40:00.797Z,2.00
2019-04-28T16:42:41.061Z,2.33
2019-04-28T16:45:22.307Z,2.17
2019-04-28T16:47:53.125Z,2.92
2019-04-28T16:50:24.159Z,2.77
2019-04-28T16:52:55.164Z,2.50
2019-04-28T16:55:32.731Z,3.17
2019-04-28T16:58:26.565Z,2.37
2019-04-28T17:01:25.610Z,4.00
2019-04-28T17:03:56.451Z,4.05
2019-04-28T17:06:27.542Z,4.55
2019-04-28T17:08:58.746Z,2.75
2019-04-28T17:11:29.882Z,1.95
2019-04-28T17:14:00.728Z,2.10
2019-04-28T17:16:32.118Z,1.92
2019-04-28T17:19:02.914Z,3.25
2019-04-28T17:21:33.888Z,2.60
2019-04-28T17:24:05.263Z,2.90
2019-04-28T17:26:36.268Z,4.00
2019-04-28T17:29:07.175Z,2.77
2019-04-28T17:31:41.692Z,2.42
2019-04-28T17:34:13.759Z,2.17
2019-04-28T17:36:45.639Z,2.05
2019-04-28T17:39:19.157Z,2.00
2019-04-28T17:41:50.106Z,1.37
2019-04-28T17:44:21.100Z,2.77
2019-04-28T17:46:52.122Z,1.40
2019-04-28T17:49:31.857Z,1.72
2019-04-28T17:52:03.861Z,1.60
2019-04-28T17:54:35.943Z,1.22
2019-04-28T17:57:07.667Z,1.90
2019-04-28T17:59:39.507Z,1.20
2019-04-28T18:02:32.954Z,3.80
2019-04-28T18:05:14.656Z,67.47
2019-04-28T18:07:47.591Z,50.45
2019-04-28T18:10:19.627Z,49.03
2019-04-28T18:13:00.333Z,23.80
2019-04-28T18:15:34.703Z,17.70
2019-04-28T18:18:13.585Z,16.62
2019-04-28T18:20:44.229Z,13.83
2019-04-28T18:23:15.073Z,11.40
2019-04-28T18:25:45.772Z,12.23
2019-04-28T18:28:16.453Z,13.62
2019-04-28T18:31:04.844Z,9.43
2019-04-28T18:33:46.406Z,8.63
2019-04-28T18:36:22.932Z,6.65
2019-04-28T18:38:59.356Z,7.35
2019-04-28T18:42:04.097Z,7.50
2019-04-28T18:44:35.092Z,6.40
2019-04-28T18:47:05.634Z,6.95
2019-04-28T18:49:36.357Z,6.05
2019-04-28T18:52:07.128Z,8.83
2019-04-28T18:54:38.349Z,8.75
2019-04-28T18:57:08.790Z,14.68
2019-04-28T18:59:39.957Z,12.55
2019-04-28T19:02:16.724Z,12.90
2019-04-28T19:04:47.950Z,14.98
2019-04-28T19:07:23.770Z,13.32
2019-04-28T19:10:03.891Z,14.75
2019-04-28T19:12:49.421Z,14.47
2019-04-28T19:15:37.918Z,15.75
2019-04-28T19:18:13.759Z,16.73
2019-04-28T19:20:44.731Z,16.37
2019-04-28T19:23:15.578Z,15.10
2019-04-28T19:25:46.734Z,21.55
2019-04-28T19:28:17.991Z,14.45
2019-04-28T19:30:48.839Z,13.15
2019-04-28T19:33:19.560Z,15.15
2019-04-28T19:35:50.399Z,17.10
2019-04-28T19:38:21.134Z,13.22
2019-04-28T19:40:52.021Z,14.18
2019-04-28T19:43:22.929Z,19.42
2019-04-28T19:45:57.297Z,14.70
2019-04-28T19:48:28.290Z,13.48
2019-04-28T19:50:59.367Z,15.85
2019-04-28T19:53:31.946Z,15.65
2019-04-28T19:56:08.940Z,14.80
2019-04-28T19:58:47.440Z,16.32
2019-04-28T20:01:36.323Z,15.23
2019-04-28T20:04:07.009Z,16.10
2019-04-28T20:06:37.475Z,16.02
2019-04-28T20:09:08.639Z,15.08
2019-04-28T20:11:39.568Z,18.67
2019-04-28T20:14:10.723Z,16.85
2019-04-28T20:16:41.572Z,13.60
2019-04-28T20:19:12.384Z,14.87
2019-04-28T20:21:43.653Z,15.25
2019-04-28T20:24:14.767Z,14.60
2019-04-28T20:26:45.951Z,13.83
2019-04-28T20:29:16.861Z,13.43
2019-04-28T20:31:47.885Z,16.20
2019-04-28T20:34:19.177Z,14.75
2019-04-28T20:37:18.027Z,12.05
2019-04-28T20:39:51.971Z,10.85
2019-04-28T20:42:42.994Z,11.88
2019-04-28T20:45:15.039Z,12.60
2019-04-28T20:47:46.370Z,12.13
2019-04-28T20:50:17.306Z,12.73
2019-04-28T20:52:48.237Z,14.25
2019-04-28T20:55:19.196Z,16.62
2019-04-28T20:57:50.274Z,15.43
2019-04-28T21:00:21.077Z,15.68
2019-04-28T21:02:52.103Z,13.68
2019-04-28T21:05:23.096Z,13.68
2019-04-28T21:07:54.331Z,15.80
2019-04-28T21:10:37.159Z,16.12
2019-04-28T21:13:00.672Z,19.87
2019-04-28T21:15:34.032Z,15.18
2019-04-28T21:18:07.998Z,15.23
2019-04-28T21:20:42.462Z,12.68
2019-04-28T21:23:17.222Z,14.05
2019-04-28T21:25:50.568Z,13.93
2019-04-28T21:28:24.349Z,15.03
2019-04-28T21:30:57.578Z,14.68
2019-04-28T21:33:31.886Z,12.90
2019-04-28T21:36:05.414Z,15.88
2019-04-28T21:38:39.342Z,14.45
2019-04-28T21:41:14.734Z,12.15
2019-04-28T21:44:00.714Z,13.70
2019-04-28T21:46:46.355Z,14.60
2019-04-28T21:49:28.302Z,16.00
2019-04-28T21:52:00.024Z,14.25
2019-04-28T21:54:31.733Z,15.70
2019-04-28T21:57:02.825Z,14.13
2019-04-28T21:59:33.612Z,18.42
2019-04-28T22:02:05.316Z,15.80
2019-04-28T22:04:37.767Z,13.58
2019-04-28T22:07:12.983Z,13.72
2019-04-28T22:09:44.559Z,11.12
2019-04-28T22:12:16.183Z,14.73
2019-04-28T22:14:47.624Z,12.40
2019-04-28T22:17:19.316Z,12.33
2019-04-28T22:19:50.802Z,13.70
2019-04-28T22:22:21.560Z,11.50
2019-04-28T22:25:04.569Z,11.93
2019-04-28T22:27:41.665Z,9.70
2019-04-28T22:30:11.595Z,10.58
2019-04-28T22:32:42.369Z,12.35
2019-04-28T22:35:13.168Z,10.05
2019-04-28T22:37:43.867Z,11.53
2019-04-28T22:40:14.839Z,9.63
2019-04-28T22:42:45.779Z,10.68
2019-04-28T22:45:16.733Z,8.63
2019-04-28T22:47:47.559Z,8.08
2019-04-28T22:50:52.185Z,6.53
2019-04-28T22:53:30.953Z,7.42
2019-04-28T22:56:30.544Z,6.15
2019-04-28T22:59:07.815Z,6.00
2019-04-28T23:01:44.435Z,7.87
2019-04-28T23:04:22.176Z,7.10
2019-04-28T23:06:53.322Z,6.12
2019-04-28T23:09:25.679Z,4.70
2019-04-28T23:11:56.525Z,6.87
2019-04-28T23:14:29.620Z,5.22
2019-04-28T23:17:02.783Z,4.65
2019-04-28T23:19:36.293Z,5.78
2019-04-28T23:22:16.776Z,4.00
2019-04-28T23:24:48.739Z,6.03
2019-04-28T23:27:20.894Z,5.03
2019-04-28T23:29:55.811Z,6.95
2019-04-28T23:32:26.903Z,6.25
2019-04-28T23:34:59.504Z,4.80
2019-04-28T23:37:32.417Z,4.75
2019-04-28T23:40:05.312Z,4.22
2019-04-28T23:42:42.693Z,5.83
2019-04-28T23:45:15.745Z,4.80
2019-04-28T23:47:49.258Z,3.55
2019-04-28T23:50:27.918Z,3.83
2019-04-28T23:53:09.281Z,4.03
2019-04-28T23:55:41.405Z,4.22
2019-04-28T23:58:12.193Z,4.10
